createdAt,value
2022-10-31T00:01:03.079Z,0.55
2022-10-31T00:03:31.288Z,0.95
2022-10-31T00:06:02.699Z,1.10
2022-10-31T00:08:30.876Z,1.00
2022-10-31T00:10:59.014Z,1.17
2022-10-31T00:13:27.161Z,0.82
2022-10-31T00:15:55.265Z,0.98
2022-10-31T00:18:23.497Z,1.48
2022-10-31T00:21:00.016Z,0.93
2022-10-31T00:23:29.508Z,0.77
2022-10-31T00:26:03.044Z,0.73
2022-10-31T00:31:02.147Z,0.90
2022-10-31T00:33:30.753Z,1.50
2022-10-31T00:35:59.048Z,1.85
2022-10-31T00:38:27.205Z,1.23
2022-10-31T00:40:56.636Z,1.30
2022-10-31T00:43:24.845Z,1.02
2022-10-31T00:45:52.976Z,0.75
2022-10-31T00:48:21.086Z,1.00
2022-10-31T00:50:50.516Z,0.85
2022-10-31T00:53:18.644Z,1.35
2022-10-31T00:55:48.054Z,0.95
2022-10-31T00:58:17.867Z,1.50
2022-10-31T01:00:49.432Z,1.67
2022-10-31T01:03:19.267Z,1.40
2022-10-31T01:05:47.308Z,1.48
2022-10-31T01:08:15.716Z,0.77
2022-10-31T01:10:44.937Z,1.30
2022-10-31T01:13:13.992Z,1.15
2022-10-31T01:15:43.435Z,1.60
2022-10-31T01:18:11.647Z,1.45
2022-10-31T01:20:39.735Z,1.20
2022-10-31T01:23:07.863Z,0.93
2022-10-31T01:25:35.965Z,1.17
2022-10-31T01:28:04.112Z,0.88
2022-10-31T01:30:32.182Z,1.80
2022-10-31T01:33:01.854Z,0.95
2022-10-31T01:35:30.726Z,1.45
2022-10-31T01:37:58.913Z,1.40
2022-10-31T01:40:31.586Z,0.55
2022-10-31T01:43:00.047Z,1.50
2022-10-31T01:45:28.423Z,1.50
2022-10-31T01:47:56.730Z,1.10
2022-10-31T01:50:34.990Z,0.93
2022-10-31T01:53:04.013Z,0.82
2022-10-31T01:55:35.637Z,0.68
2022-10-31T01:58:09.435Z,0.98
2022-10-31T02:00:39.037Z,1.42
2022-10-31T02:03:07.223Z,0.98
2022-10-31T02:05:37.746Z,0.95
2022-10-31T02:08:11.155Z,1.48
2022-10-31T02:10:39.856Z,1.00
2022-10-31T02:13:10.514Z,0.80
2022-10-31T02:15:47.548Z,1.13
2022-10-31T02:18:16.003Z,1.70
2022-10-31T02:20:56.755Z,1.17
2022-10-31T02:23:53.759Z,1.25
2022-10-31T02:26:43.966Z,0.68
2022-10-31T02:29:47.603Z,0.68
2022-10-31T02:32:24.505Z,0.57
2022-10-31T02:34:59.607Z,1.27
2022-10-31T02:37:36.906Z,0.85
2022-10-31T02:40:11.497Z,0.57
2022-10-31T02:43:05.756Z,0.57
2022-10-31T02:45:41.225Z,0.98
2022-10-31T02:48:14.617Z,0.70
2022-10-31T02:50:51.007Z,0.88
2022-10-31T02:53:19.168Z,1.65
2022-10-31T02:55:58.275Z,0.70
2022-10-31T02:58:31.425Z,0.65
2022-10-31T03:01:27.788Z,0.90
2022-10-31T03:04:13.526Z,0.75
2022-10-31T03:06:51.754Z,1.05
2022-10-31T03:09:26.814Z,1.10
2022-10-31T03:12:03.312Z,1.02
2022-10-31T03:14:41.237Z,0.65
2022-10-31T03:17:16.423Z,0.65
2022-10-31T03:19:50.308Z,0.60
2022-10-31T03:22:21.675Z,0.82
2022-10-31T03:24:50.794Z,0.68
2022-10-31T03:27:26.535Z,0.50
2022-10-31T03:29:58.126Z,0.40
2022-10-31T03:32:31.303Z,0.95
2022-10-31T03:35:04.753Z,0.55
2022-10-31T03:37:36.514Z,0.52
2022-10-31T03:40:08.775Z,0.65
2022-10-31T03:42:42.694Z,0.67
2022-10-31T03:45:15.116Z,0.52
2022-10-31T03:47:45.619Z,0.55
2022-10-31T03:50:17.578Z,0.80
2022-10-31T03:52:52.202Z,0.47
2022-10-31T03:55:26.275Z,0.82
2022-10-31T03:58:02.104Z,0.70
2022-10-31T04:00:33.765Z,1.02
2022-10-31T04:03:08.124Z,0.60
2022-10-31T04:05:40.765Z,1.10
2022-10-31T04:08:14.945Z,1.10
2022-10-31T04:10:49.195Z,0.70
2022-10-31T04:13:22.471Z,0.85
2022-10-31T04:15:59.595Z,0.60
2022-10-31T04:18:28.265Z,1.40
2022-10-31T04:21:05.617Z,0.70
2022-10-31T04:23:35.104Z,0.85
2022-10-31T04:26:12.506Z,0.60
2022-10-31T04:28:40.801Z,0.93
2022-10-31T04:31:08.825Z,0.88
2022-10-31T04:33:39.082Z,0.70
2022-10-31T04:36:09.344Z,1.02
2022-10-31T04:38:37.612Z,0.65
2022-10-31T04:41:13.348Z,0.57
2022-10-31T04:44:00.031Z,1.77
2022-10-31T04:46:29.282Z,0.50
2022-10-31T04:48:59.247Z,0.80
2022-10-31T04:51:28.646Z,1.00
2022-10-31T04:53:57.416Z,0.77
2022-10-31T04:56:25.556Z,0.77
2022-10-31T04:58:58.575Z,0.70
2022-10-31T05:01:29.156Z,0.90
2022-10-31T05:03:59.204Z,2.33
2022-10-31T05:06:28.597Z,0.90
2022-10-31T05:08:56.794Z,0.50
2022-10-31T05:11:24.915Z,0.60
2022-10-31T05:13:54.995Z,0.73
2022-10-31T05:16:42.993Z,1.33
2022-10-31T05:19:29.672Z,0.63
2022-10-31T05:22:17.823Z,1.30
2022-10-31T05:24:46.054Z,1.13
2022-10-31T05:27:15.144Z,0.52
2022-10-31T05:29:43.875Z,1.00
2022-10-31T05:32:11.946Z,0.93
2022-10-31T05:34:58.334Z,0.77
2022-10-31T05:37:48.972Z,1.02
2022-10-31T05:40:19.084Z,1.13
2022-10-31T05:42:48.067Z,0.75
2022-10-31T05:45:18.394Z,0.80
2022-10-31T05:47:54.737Z,0.73
2022-10-31T05:50:41.571Z,0.88
2022-10-31T05:53:13.163Z,1.20
2022-10-31T05:55:42.746Z,0.95
2022-10-31T05:58:14.070Z,0.93
2022-10-31T06:00:49.521Z,0.98
2022-10-31T06:03:18.039Z,1.02
2022-10-31T06:05:52.291Z,0.90
2022-10-31T06:08:26.836Z,0.70
2022-10-31T06:10:56.843Z,0.82
2022-10-31T06:13:44.875Z,1.15
2022-10-31T06:16:20.315Z,0.95
2022-10-31T06:18:48.514Z,1.00
2022-10-31T06:21:18.991Z,1.40
2022-10-31T06:23:51.314Z,1.00
2022-10-31T06:26:37.792Z,1.45
2022-10-31T06:29:06.431Z,0.80
2022-10-31T06:32:00.175Z,0.70
2022-10-31T06:34:29.739Z,1.05
2022-10-31T06:36:57.913Z,1.10
2022-10-31T06:39:29.106Z,0.95
2022-10-31T06:41:57.216Z,1.00
2022-10-31T06:44:28.177Z,1.80
2022-10-31T06:46:56.344Z,1.17
2022-10-31T06:49:43.085Z,0.95
2022-10-31T06:52:15.565Z,1.08
2022-10-31T06:54:45.046Z,1.27
2022-10-31T06:57:16.424Z,1.65
2022-10-31T06:59:44.677Z,1.10
2022-10-31T07:02:17.887Z,1.15
2022-10-31T07:04:46.193Z,1.17
2022-10-31T07:07:16.276Z,1.17
2022-10-31T07:09:45.711Z,1.17
2022-10-31T07:12:18.034Z,1.70
2022-10-31T07:14:58.415Z,1.08
2022-10-31T07:17:29.825Z,1.80
2022-10-31T07:20:01.116Z,1.50
2022-10-31T07:22:34.998Z,1.42
2022-10-31T07:25:06.755Z,1.60
2022-10-31T07:27:53.494Z,1.88
2022-10-31T07:30:21.914Z,1.17
2022-10-31T07:32:53.044Z,0.93
2022-10-31T07:35:25.521Z,1.55
2022-10-31T07:37:58.963Z,1.00
2022-10-31T07:40:28.867Z,0.88
2022-10-31T07:43:00.035Z,1.20
2022-10-31T07:45:54.378Z,1.08
2022-10-31T07:48:48.100Z,1.10
2022-10-31T07:51:34.715Z,1.23
2022-10-31T07:54:21.533Z,0.88
2022-10-31T07:56:51.103Z,0.90
2022-10-31T07:59:19.302Z,1.30
2022-10-31T08:01:47.810Z,1.15
2022-10-31T08:04:34.666Z,0.90
2022-10-31T08:07:21.467Z,1.25
2022-10-31T08:09:57.896Z,0.95
2022-10-31T08:12:31.669Z,1.20
2022-10-31T08:15:00.197Z,1.20
2022-10-31T08:17:28.446Z,1.15
2022-10-31T08:19:59.875Z,1.25
2022-10-31T08:22:41.276Z,1.27
2022-10-31T08:25:12.544Z,1.17
2022-10-31T08:27:42.335Z,0.95
2022-10-31T08:30:18.448Z,1.90
2022-10-31T08:33:02.408Z,1.05
2022-10-31T08:35:49.575Z,1.10
2022-10-31T08:38:40.167Z,0.95
2022-10-31T08:41:10.926Z,1.95
2022-10-31T08:43:40.466Z,1.08
2022-10-31T08:46:09.134Z,1.27
2022-10-31T08:48:38.355Z,1.05
2022-10-31T08:51:06.807Z,1.52
2022-10-31T08:53:35.088Z,1.30
2022-10-31T08:56:23.359Z,1.63
2022-10-31T08:58:59.344Z,1.60
2022-10-31T09:01:36.862Z,1.73
2022-10-31T09:04:07.548Z,1.02
2022-10-31T09:06:38.039Z,1.02
2022-10-31T09:09:06.562Z,1.17
2022-10-31T09:11:34.669Z,0.98
2022-10-31T09:14:22.792Z,1.55
2022-10-31T09:17:09.244Z,1.15
2022-10-31T09:20:02.934Z,1.15
2022-10-31T09:22:34.816Z,1.52
2022-10-31T09:25:03.465Z,1.20
2022-10-31T09:27:31.641Z,1.08
2022-10-31T09:30:01.809Z,0.82
2022-10-31T09:32:30.555Z,1.02
2022-10-31T09:34:59.001Z,1.23
2022-10-31T09:37:27.157Z,1.58
2022-10-31T09:39:55.344Z,1.30
2022-10-31T09:42:49.187Z,1.27
2022-10-31T09:45:32.886Z,1.35
2022-10-31T09:48:21.662Z,2.10
2022-10-31T09:51:13.193Z,1.67
2022-10-31T09:54:03.566Z,1.05
2022-10-31T09:56:34.265Z,1.50
2022-10-31T09:59:05.395Z,1.15
2022-10-31T10:01:45.227Z,1.70
2022-10-31T10:04:29.144Z,1.35
2022-10-31T10:07:16.657Z,1.25
2022-10-31T10:09:45.006Z,1.75
2022-10-31T10:12:50.724Z,1.67
2022-10-31T10:15:33.952Z,2.00
2022-10-31T10:18:29.396Z,1.65
2022-10-31T10:21:12.264Z,1.50
2022-10-31T10:23:54.204Z,1.52
2022-10-31T10:26:24.233Z,1.35
2022-10-31T10:32:27.456Z,1.50
2022-10-31T10:35:04.354Z,1.02
2022-10-31T10:37:36.315Z,1.80
2022-10-31T10:40:16.418Z,2.58
2022-10-31T10:43:04.747Z,1.77
2022-10-31T10:45:50.393Z,1.58
2022-10-31T10:48:34.305Z,2.53
2022-10-31T10:54:03.217Z,2.28
2022-10-31T10:56:47.874Z,1.40
2022-10-31T10:59:20.340Z,1.48
2022-10-31T11:01:52.115Z,1.80
2022-10-31T11:04:36.790Z,1.40
2022-10-31T11:07:09.081Z,1.30
2022-10-31T11:09:38.194Z,1.20
2022-10-31T11:12:11.108Z,1.35
2022-10-31T11:14:47.875Z,1.42
2022-10-31T11:17:24.641Z,1.60
2022-10-31T11:20:02.745Z,1.27
2022-10-31T11:22:32.653Z,1.30
2022-10-31T11:25:00.822Z,1.05
2022-10-31T11:27:29.332Z,1.33
2022-10-31T11:30:07.321Z,1.25
2022-10-31T11:32:35.805Z,1.30
2022-10-31T11:35:11.433Z,1.33
2022-10-31T11:37:45.909Z,1.23
2022-10-31T11:40:21.481Z,1.38
2022-10-31T11:42:52.291Z,1.80
2022-10-31T11:45:31.947Z,1.10
2022-10-31T11:48:03.338Z,1.20
2022-10-31T11:50:39.537Z,1.40
2022-10-31T11:53:17.116Z,1.08
2022-10-31T11:55:46.543Z,2.15
2022-10-31T11:58:34.468Z,0.70
2022-10-31T12:01:03.413Z,1.20
2022-10-31T12:03:43.305Z,0.98
2022-10-31T12:06:18.959Z,1.48
2022-10-31T12:08:49.363Z,0.63
2022-10-31T12:11:33.699Z,1.50
2022-10-31T12:14:12.763Z,0.90
2022-10-31T12:16:49.365Z,1.10
2022-10-31T12:19:29.297Z,1.92
2022-10-31T12:22:08.801Z,1.00
2022-10-31T12:24:53.371Z,1.10
2022-10-31T12:27:33.446Z,1.10
2022-10-31T12:30:14.669Z,0.95
2022-10-31T12:32:59.826Z,0.75
2022-10-31T12:35:42.354Z,0.73
2022-10-31T12:38:27.192Z,0.98
2022-10-31T12:41:11.108Z,0.50
2022-10-31T12:46:26.116Z,0.63
2022-10-31T12:49:19.094Z,0.85
2022-10-31T12:52:00.815Z,0.85
2022-10-31T12:54:49.955Z,0.63
2022-10-31T12:57:29.854Z,0.90
2022-10-31T13:00:03.921Z,1.17
2022-10-31T13:02:36.855Z,1.13
2022-10-31T13:05:13.859Z,0.75
2022-10-31T13:07:46.333Z,0.75
2022-10-31T13:10:22.171Z,0.70
2022-10-31T13:12:55.735Z,1.08
2022-10-31T13:17:57.837Z,0.90
2022-10-31T13:20:30.159Z,1.40
2022-10-31T13:23:17.893Z,0.73
2022-10-31T13:25:59.704Z,0.70
2022-10-31T13:28:40.838Z,0.98
2022-10-31T13:31:09.069Z,0.93
2022-10-31T13:33:42.844Z,0.95
2022-10-31T13:36:24.031Z,1.23
2022-10-31T13:38:56.712Z,1.00
2022-10-31T13:41:37.032Z,1.00
2022-10-31T13:44:13.335Z,1.67
2022-10-31T13:49:39.295Z,0.90
2022-10-31T13:52:15.613Z,0.95
2022-10-31T13:54:46.143Z,0.90
2022-10-31T13:57:21.020Z,1.05
2022-10-31T13:59:54.009Z,0.98
2022-10-31T14:02:28.822Z,0.95
2022-10-31T14:05:00.294Z,0.85
2022-10-31T14:07:30.732Z,0.93
2022-10-31T14:10:03.597Z,1.20
2022-10-31T14:12:36.484Z,0.90
2022-10-31T14:15:15.966Z,0.80
2022-10-31T14:17:50.004Z,1.00
2022-10-31T14:20:39.994Z,1.42
2022-10-31T14:23:36.667Z,0.90
2022-10-31T14:26:22.102Z,1.10
2022-10-31T14:28:51.535Z,0.70
2022-10-31T14:31:40.665Z,1.65
2022-10-31T14:34:23.869Z,1.27
2022-10-31T14:37:03.870Z,0.70
2022-10-31T14:39:36.393Z,0.85
2022-10-31T14:42:17.392Z,0.85
2022-10-31T14:45:04.482Z,0.80
2022-10-31T14:47:42.690Z,0.55
2022-10-31T14:50:32.055Z,1.17
2022-10-31T14:53:05.627Z,1.05
2022-10-31T14:58:04.082Z,0.93
2022-10-31T15:00:34.616Z,0.82
2022-10-31T15:03:14.559Z,1.00
2022-10-31T15:05:47.584Z,1.00
2022-10-31T15:08:28.867Z,0.55
2022-10-31T15:10:57.010Z,0.77
2022-10-31T15:13:25.516Z,1.13
2022-10-31T15:15:56.436Z,0.82
2022-10-31T15:18:28.974Z,0.70
2022-10-31T15:20:58.691Z,1.10
2022-10-31T15:23:29.603Z,1.00
2022-10-31T15:26:01.694Z,0.47
2022-10-31T15:28:32.305Z,0.82
2022-10-31T15:31:03.181Z,0.70
2022-10-31T15:33:38.734Z,0.88
2022-10-31T15:36:08.577Z,0.93
2022-10-31T15:38:36.887Z,0.75
2022-10-31T15:41:09.221Z,0.80
2022-10-31T15:43:40.973Z,1.90
2022-10-31T15:46:11.255Z,2.47
2022-10-31T15:48:45.656Z,2.15
2022-10-31T15:51:14.013Z,2.13
2022-10-31T15:53:49.014Z,2.13
2022-10-31T15:56:23.104Z,3.05
2022-10-31T15:58:54.571Z,3.20
2022-10-31T16:01:25.626Z,2.63
2022-10-31T16:04:04.993Z,2.08
2022-10-31T16:06:34.927Z,1.92
2022-10-31T16:09:03.823Z,2.33
2022-10-31T16:11:36.965Z,2.00
2022-10-31T16:14:09.149Z,1.85
2022-10-31T16:16:49.310Z,1.73
2022-10-31T16:19:22.807Z,1.70
2022-10-31T16:21:54.843Z,1.95
2022-10-31T16:24:27.305Z,1.50
2022-10-31T16:27:05.191Z,1.63
2022-10-31T16:29:38.041Z,1.80
2022-10-31T16:32:06.769Z,1.80
2022-10-31T16:34:36.213Z,1.33
2022-10-31T16:37:04.552Z,1.38
2022-10-31T16:39:32.636Z,1.88
2022-10-31T16:42:00.851Z,1.58
2022-10-31T16:44:29.350Z,1.50
2022-10-31T16:47:11.970Z,1.15
2022-10-31T16:49:41.451Z,2.17
2022-10-31T16:52:09.530Z,1.40
2022-10-31T16:54:38.223Z,1.58
2022-10-31T16:57:07.985Z,1.50
2022-10-31T16:59:36.587Z,2.42
2022-10-31T17:02:05.961Z,3.38
2022-10-31T17:04:34.296Z,2.00
2022-10-31T17:07:03.790Z,1.95
2022-10-31T17:09:31.966Z,1.70
2022-10-31T17:12:00.251Z,2.03
2022-10-31T17:14:28.477Z,1.88
2022-10-31T17:16:58.964Z,2.15
2022-10-31T17:19:27.214Z,2.10
2022-10-31T17:21:55.375Z,2.20
2022-10-31T17:24:24.871Z,1.98
2022-10-31T17:26:52.995Z,1.90
2022-10-31T17:29:21.145Z,2.15
2022-10-31T17:31:49.426Z,1.48
2022-10-31T17:34:19.381Z,1.80
2022-10-31T17:36:51.395Z,1.98
2022-10-31T17:39:19.924Z,1.48
2022-10-31T17:41:52.451Z,1.70
2022-10-31T17:44:20.915Z,2.08
2022-10-31T17:46:50.440Z,1.70
2022-10-31T17:49:18.723Z,1.77
2022-10-31T17:51:46.794Z,1.80
2022-10-31T17:54:18.498Z,1.52
2022-10-31T17:56:46.697Z,1.63
2022-10-31T17:59:16.076Z,2.00
2022-10-31T18:01:44.320Z,1.30
2022-10-31T18:04:12.669Z,1.75
2022-10-31T18:06:40.853Z,1.67
2022-10-31T18:09:09.144Z,1.45
2022-10-31T18:11:37.365Z,1.48
2022-10-31T18:14:05.893Z,1.92
2022-10-31T18:19:06.001Z,1.20
2022-10-31T18:21:34.084Z,1.80
2022-10-31T18:24:03.356Z,1.52
2022-10-31T18:26:31.712Z,1.52
2022-10-31T18:29:00.084Z,1.73
2022-10-31T18:31:28.417Z,2.00
2022-10-31T18:33:58.285Z,1.67
2022-10-31T18:36:26.863Z,1.70
2022-10-31T18:38:55.173Z,1.95
2022-10-31T18:41:23.433Z,1.75
2022-10-31T18:43:52.138Z,2.17
2022-10-31T18:46:21.234Z,1.85
2022-10-31T18:48:49.454Z,1.98
2022-10-31T18:51:19.201Z,2.30
2022-10-31T18:53:52.080Z,2.45
2022-10-31T18:56:20.812Z,2.87
2022-10-31T18:58:49.322Z,2.67
2022-10-31T19:01:19.012Z,2.50
2022-10-31T19:03:47.579Z,2.55
2022-10-31T19:06:15.705Z,2.97
2022-10-31T19:08:45.115Z,3.20
2022-10-31T19:11:15.271Z,3.50
2022-10-31T19:13:44.132Z,3.55
2022-10-31T19:16:14.065Z,4.30
2022-10-31T19:18:43.680Z,3.90
2022-10-31T19:21:14.201Z,4.53
2022-10-31T19:23:43.025Z,4.35
2022-10-31T19:26:12.579Z,5.38
2022-10-31T19:28:42.491Z,4.25
2022-10-31T19:31:11.499Z,3.53
2022-10-31T19:33:39.946Z,4.10
2022-10-31T19:36:10.193Z,3.65
2022-10-31T19:38:41.359Z,3.78
2022-10-31T19:41:11.065Z,3.55
2022-10-31T19:43:40.972Z,4.65
2022-10-31T19:46:17.622Z,4.65
2022-10-31T19:48:57.266Z,4.00
2022-10-31T19:51:25.466Z,3.67
2022-10-31T19:53:54.675Z,5.18
2022-10-31T19:56:24.653Z,4.68
2022-10-31T19:58:54.195Z,3.95
2022-10-31T20:01:24.243Z,4.22
2022-10-31T20:03:52.838Z,5.00
2022-10-31T20:06:24.355Z,4.80
2022-10-31T20:08:52.962Z,4.30
2022-10-31T20:11:21.124Z,4.47
2022-10-31T20:13:49.294Z,4.70
2022-10-31T20:16:19.286Z,4.40
2022-10-31T20:18:48.141Z,5.20
2022-10-31T20:21:18.115Z,5.97
2022-10-31T20:23:47.494Z,5.03
2022-10-31T20:26:17.644Z,5.07
2022-10-31T20:28:46.675Z,5.45
2022-10-31T20:31:17.905Z,5.00
2022-10-31T20:33:47.813Z,4.22
2022-10-31T20:36:19.501Z,4.53
2022-10-31T20:38:49.155Z,4.53
2022-10-31T20:41:18.484Z,5.38
2022-10-31T20:43:46.996Z,5.50
2022-10-31T20:46:18.756Z,4.45
2022-10-31T20:48:48.552Z,5.63
2022-10-31T20:51:19.281Z,4.78
2022-10-31T20:53:47.474Z,5.40
2022-10-31T20:56:17.514Z,4.90
2022-10-31T20:58:47.343Z,5.00
2022-10-31T21:01:18.510Z,4.97
2022-10-31T21:03:49.089Z,5.00
2022-10-31T21:06:18.664Z,4.72
2022-10-31T21:08:47.415Z,5.18
2022-10-31T21:11:17.583Z,4.65
2022-10-31T21:13:47.192Z,4.43
2022-10-31T21:16:17.192Z,4.65
2022-10-31T21:18:47.413Z,4.53
2022-10-31T21:21:19.685Z,4.65
2022-10-31T21:23:48.614Z,5.22
2022-10-31T21:26:20.960Z,5.22
2022-10-31T21:28:49.955Z,5.03
2022-10-31T21:31:19.691Z,4.93
2022-10-31T21:33:48.644Z,4.90
2022-10-31T21:36:18.912Z,5.03
2022-10-31T21:38:50.837Z,4.72
2022-10-31T21:41:20.103Z,5.53
2022-10-31T21:43:50.483Z,4.82
2022-10-31T21:46:21.174Z,4.93
2022-10-31T21:48:50.174Z,4.60
2022-10-31T21:51:21.380Z,4.82
2022-10-31T21:54:07.183Z,4.95
2022-10-31T21:56:35.778Z,4.63
2022-10-31T21:59:04.921Z,4.93
2022-10-31T22:01:33.790Z,4.28
2022-10-31T22:04:02.576Z,4.95
2022-10-31T22:06:33.035Z,4.78
2022-10-31T22:09:03.186Z,4.80
2022-10-31T22:11:31.410Z,5.45
2022-10-31T22:14:00.963Z,4.72
2022-10-31T22:16:30.548Z,5.13
2022-10-31T22:19:05.258Z,4.95
2022-10-31T22:21:39.154Z,4.55
2022-10-31T22:26:36.794Z,4.60
2022-10-31T22:29:07.742Z,4.22
2022-10-31T22:31:38.804Z,4.25
2022-10-31T22:34:06.972Z,4.05
2022-10-31T22:36:37.826Z,3.85
2022-10-31T22:39:07.096Z,3.72
2022-10-31T22:41:36.920Z,3.10
2022-10-31T22:44:06.237Z,3.58
2022-10-31T22:46:36.908Z,3.55
2022-10-31T22:49:07.197Z,3.60
2022-10-31T22:51:38.804Z,2.67
2022-10-31T22:54:10.685Z,3.00
2022-10-31T22:56:38.994Z,2.90
2022-10-31T22:59:07.423Z,2.20
2022-10-31T23:01:35.836Z,2.17
2022-10-31T23:04:04.044Z,1.60
2022-10-31T23:06:33.973Z,1.38
2022-10-31T23:09:07.243Z,1.52
2022-10-31T23:11:38.212Z,1.23
2022-10-31T23:14:10.632Z,1.45
2022-10-31T23:16:42.453Z,1.50
2022-10-31T23:19:11.725Z,1.67
2022-10-31T23:21:59.517Z,1.20
2022-10-31T23:24:33.850Z,1.15
2022-10-31T23:27:08.855Z,1.33
2022-10-31T23:29:40.064Z,0.77
2022-10-31T23:32:10.456Z,0.63
2022-10-31T23:34:38.563Z,0.60
2022-10-31T23:39:37.330Z,0.63
2022-10-31T23:42:05.543Z,0.90
2022-10-31T23:44:33.624Z,0.63
2022-10-31T23:47:01.803Z,0.90
2022-10-31T23:49:29.920Z,0.60
2022-10-31T23:51:58.117Z,0.80
2022-10-31T23:54:27.353Z,1.20
2022-10-31T23:56:58.212Z,0.35
2022-10-31T23:59:27.362Z,0.60
